createdAt,value
2019-04-21T00:01:39.920Z,9.76
2019-04-21T00:04:12.339Z,9.72
2019-04-21T00:06:51.095Z,9.62
2019-04-21T00:09:27.821Z,9.59
2019-04-21T00:11:48.325Z,9.53
2019-04-21T00:14:13.276Z,9.56
2019-04-21T00:16:34.719Z,9.55
2019-04-21T00:19:09.083Z,9.50
2019-04-21T00:21:38.474Z,9.40
2019-04-21T00:24:23.285Z,9.32
2019-04-21T00:27:03.781Z,9.32
2019-04-21T00:29:34.239Z,9.25
2019-04-21T00:31:56.029Z,9.15
2019-04-21T00:34:09.566Z,9.17
2019-04-21T00:36:47.167Z,9.13
2019-04-21T00:39:36.134Z,9.12
2019-04-21T00:41:59.599Z,9.11
2019-04-21T00:44:18.026Z,9.07
2019-04-21T00:46:55.823Z,9.04
2019-04-21T00:49:24.772Z,9.00
2019-04-21T00:52:25.144Z,8.91
2019-04-21T00:54:52.100Z,8.86
2019-04-21T00:57:11.513Z,8.86
2019-04-21T00:59:40.413Z,8.85
2019-04-21T01:02:05.617Z,8.79
2019-04-21T01:04:36.860Z,8.77
2019-04-21T01:07:11.192Z,8.72
2019-04-21T01:09:27.861Z,8.65
2019-04-21T01:12:01.285Z,8.60
2019-04-21T01:14:34.811Z,8.56
2019-04-21T01:16:57.954Z,8.54
2019-04-21T01:19:25.159Z,8.54
2019-04-21T01:21:35.244Z,8.44
2019-04-21T01:24:08.703Z,8.38
2019-04-21T01:26:42.969Z,8.36
2019-04-21T01:29:15.936Z,8.32
2019-04-21T01:31:42.154Z,8.28
2019-04-21T01:34:17.043Z,8.25
2019-04-21T01:36:46.039Z,8.30
2019-04-21T01:39:19.704Z,8.27
2019-04-21T01:41:44.789Z,8.18
2019-04-21T01:44:07.522Z,8.15
2019-04-21T01:46:33.715Z,8.10
2019-04-21T01:49:02.098Z,8.05
2019-04-21T01:51:49.320Z,8.03
2019-04-21T01:54:16.033Z,8.05
2019-04-21T01:56:40.159Z,7.98
2019-04-21T01:58:58.763Z,7.99
2019-04-21T02:01:42.319Z,7.99
2019-04-21T02:04:02.669Z,7.93
2019-04-21T02:06:36.262Z,7.88
2019-04-21T02:08:58.055Z,7.81
2019-04-21T02:11:41.280Z,7.74
2019-04-21T02:14:03.873Z,7.65
2019-04-21T02:16:30.773Z,7.65
2019-04-21T02:18:54.672Z,7.68
2019-04-21T02:21:22.104Z,7.65
2019-04-21T02:24:05.068Z,7.65
2019-04-21T02:26:28.542Z,7.67
2019-04-21T02:29:01.959Z,7.56
2019-04-21T02:31:40.420Z,7.53
2019-04-21T02:34:04.481Z,7.47
2019-04-21T02:36:40.214Z,7.42
2019-04-21T02:41:35.522Z,7.44
2019-04-21T02:44:02.507Z,7.39
2019-04-21T02:46:35.314Z,7.37
2019-04-21T02:49:11.638Z,7.33
2019-04-21T02:51:33.889Z,7.32
2019-04-21T02:56:34.481Z,7.20
2019-04-21T03:04:13.808Z,7.32
2019-04-21T03:07:01.653Z,7.28
2019-04-21T03:09:29.797Z,7.26
2019-04-21T03:12:01.573Z,7.18
2019-04-21T03:14:31.497Z,7.08
2019-04-21T03:16:40.158Z,7.10
2019-04-21T03:21:52.482Z,7.03
2019-04-21T03:24:17.927Z,7.00
2019-04-21T03:27:01.897Z,6.95
2019-04-21T03:29:23.906Z,6.92
2019-04-21T03:39:05.637Z,6.92
2019-04-21T03:41:39.548Z,6.95
2019-04-21T03:44:06.195Z,6.91
2019-04-21T03:49:11.851Z,6.82
2019-04-21T03:51:57.347Z,6.82
2019-04-21T03:54:04.966Z,6.79
2019-04-21T04:01:28.468Z,6.75
2019-04-21T04:04:30.617Z,6.71
2019-04-21T04:06:45.081Z,6.70
2019-04-21T04:11:44.152Z,6.64
2019-04-21T04:16:50.372Z,6.56
2019-04-21T04:19:06.136Z,6.56
2019-04-21T04:21:37.217Z,6.53
2019-04-21T04:24:07.170Z,6.51
2019-04-21T04:29:12.428Z,6.51
2019-04-21T04:34:10.565Z,6.56
2019-04-21T04:36:53.161Z,6.55
2019-04-21T04:39:39.635Z,6.56
2019-04-21T04:42:03.332Z,6.60
2019-04-21T04:44:42.081Z,6.60
2019-04-21T04:49:40.017Z,6.69
2019-04-21T04:52:14.140Z,6.56
2019-04-21T04:54:33.792Z,6.57
2019-04-21T04:56:59.284Z,6.77
2019-04-21T05:02:05.777Z,6.94
2019-04-21T05:04:15.461Z,7.12
2019-04-21T05:09:13.106Z,7.19
2019-04-21T05:14:25.103Z,7.45
2019-04-21T05:16:46.769Z,7.48
2019-04-21T05:21:54.712Z,7.70
2019-04-21T05:24:10.795Z,7.39
2019-04-21T05:26:22.015Z,7.54
2019-04-21T05:28:47.298Z,7.52
2019-04-21T05:31:31.670Z,7.65
2019-04-21T05:34:07.470Z,7.61
2019-04-21T05:36:45.907Z,7.65
2019-04-21T05:39:18.523Z,7.92
2019-04-21T05:41:41.232Z,8.10
2019-04-21T05:44:31.242Z,8.26
2019-04-21T05:47:05.924Z,8.34
2019-04-21T05:49:27.961Z,8.47
2019-04-21T05:51:57.499Z,8.60
2019-04-21T05:54:39.503Z,8.82
2019-04-21T05:56:55.447Z,9.00
2019-04-21T05:59:29.372Z,9.19
2019-04-21T06:02:11.410Z,9.25
2019-04-21T06:04:38.494Z,9.41
2019-04-21T06:06:59.443Z,9.68
2019-04-21T06:09:32.277Z,9.74
2019-04-21T06:11:51.429Z,9.74
2019-04-21T06:14:25.153Z,9.92
2019-04-21T06:19:29.414Z,10.21
2019-04-21T06:21:45.225Z,10.52
2019-04-21T06:24:17.352Z,10.74
2019-04-21T06:27:00.375Z,11.04
2019-04-21T06:29:19.470Z,11.32
2019-04-21T06:34:11.214Z,11.64
2019-04-21T06:39:40.324Z,12.16
2019-04-21T06:41:45.270Z,12.28
2019-04-21T06:44:16.532Z,12.64
2019-04-21T06:47:04.535Z,12.87
2019-04-21T06:49:21.776Z,13.17
2019-04-21T06:51:43.591Z,13.30
2019-04-21T06:54:30.557Z,13.08
2019-04-21T06:57:21.877Z,13.37
2019-04-21T06:59:23.061Z,13.68
2019-04-21T07:01:43.896Z,14.20
2019-04-21T07:06:46.953Z,14.50
2019-04-21T07:11:31.802Z,15.20
2019-04-21T07:14:24.947Z,15.49
2019-04-21T07:16:32.010Z,15.74
2019-04-21T07:19:09.957Z,16.03
2019-04-21T07:21:30.001Z,16.29
2019-04-21T07:23:59.156Z,16.47
2019-04-21T07:26:32.725Z,16.64
2019-04-21T07:29:01.858Z,16.69
2019-04-21T07:31:28.935Z,16.88
2019-04-21T07:36:36.432Z,16.85
2019-04-21T07:38:49.884Z,17.14
2019-04-21T07:41:11.325Z,17.43
2019-04-21T07:43:39.371Z,17.58
2019-04-21T07:46:09.282Z,17.75
2019-04-21T07:48:49.258Z,17.55
2019-04-21T07:51:25.393Z,17.51
2019-04-21T07:54:08.623Z,17.95
2019-04-21T07:56:09.344Z,18.27
2019-04-21T07:58:58.385Z,18.36
2019-04-21T08:01:24.329Z,18.27
2019-04-21T08:04:14.752Z,18.16
2019-04-21T08:06:22.406Z,18.61
2019-04-21T08:08:49.145Z,18.85
2019-04-21T08:11:15.235Z,18.87
2019-04-21T08:13:48.717Z,18.84
2019-04-21T08:16:17.425Z,19.27
2019-04-21T08:18:47.421Z,19.54
2019-04-21T08:21:11.018Z,19.94
2019-04-21T08:23:41.608Z,19.04
2019-04-21T08:26:07.969Z,18.90
2019-04-21T08:28:42.612Z,19.43
2019-04-21T08:31:08.191Z,19.95
2019-04-21T08:33:46.569Z,20.27
2019-04-21T08:38:41.717Z,20.86
2019-04-21T08:41:08.426Z,20.99
2019-04-21T08:46:02.026Z,20.99
2019-04-21T08:48:28.530Z,21.44
2019-04-21T08:51:14.172Z,21.58
2019-04-21T08:53:34.269Z,21.35
2019-04-21T08:56:18.274Z,20.04
2019-04-21T08:58:59.199Z,21.00
2019-04-21T09:01:23.989Z,21.74
2019-04-21T09:04:03.793Z,22.08
2019-04-21T09:06:40.277Z,22.39
2019-04-21T09:08:58.630Z,22.74
2019-04-21T09:11:22.609Z,22.53
2019-04-21T09:13:48.914Z,22.58
2019-04-21T09:16:17.081Z,22.79
2019-04-21T09:18:43.335Z,23.17
2019-04-21T09:21:19.455Z,23.31
2019-04-21T09:23:45.339Z,23.63
2019-04-21T09:26:19.697Z,23.95
2019-04-21T09:28:42.106Z,23.89
2019-04-21T09:31:00.841Z,23.74
2019-04-21T09:33:34.502Z,23.91
2019-04-21T09:35:59.260Z,23.91
2019-04-21T09:38:29.965Z,23.92
2019-04-21T09:40:54.019Z,22.13
2019-04-21T09:43:29.987Z,22.33
2019-04-21T09:45:47.665Z,22.77
2019-04-21T09:48:18.733Z,23.40
2019-04-21T09:50:43.890Z,23.94
2019-04-21T09:53:16.782Z,24.17
2019-04-21T09:55:46.591Z,24.26
2019-04-21T09:58:18.487Z,24.48
2019-04-21T10:00:52.557Z,24.71
2019-04-21T10:03:11.687Z,24.80
2019-04-21T10:05:36.022Z,25.20
2019-04-21T10:08:04.095Z,25.47
2019-04-21T10:10:31.841Z,25.52
2019-04-21T10:13:00.694Z,25.58
2019-04-21T10:15:28.318Z,25.39
2019-04-21T10:18:01.028Z,25.07
2019-04-21T10:20:28.538Z,25.31
2019-04-21T10:22:55.373Z,25.52
2019-04-21T10:25:22.809Z,25.57
2019-04-21T10:27:49.646Z,25.70
2019-04-21T10:30:16.989Z,25.65
2019-04-21T10:32:43.567Z,25.22
2019-04-21T10:35:10.909Z,24.23
2019-04-21T10:37:52.681Z,24.10
2019-04-21T10:40:07.525Z,24.10
2019-04-21T10:42:35.738Z,24.54
2019-04-21T10:45:05.102Z,25.08
2019-04-21T10:47:32.423Z,25.38
2019-04-21T10:50:00.400Z,26.00
2019-04-21T10:52:46.691Z,26.43
2019-04-21T10:55:32.059Z,26.16
2019-04-21T10:57:44.367Z,26.53
2019-04-21T11:00:13.609Z,26.94
2019-04-21T11:02:44.674Z,26.98
2019-04-21T11:05:12.503Z,26.59
2019-04-21T11:07:55.222Z,26.64
2019-04-21T11:10:13.956Z,26.84
2019-04-21T11:12:41.382Z,27.41
2019-04-21T11:15:09.390Z,26.20
2019-04-21T11:17:36.480Z,25.79
2019-04-21T11:20:04.620Z,25.81
2019-04-21T11:22:33.501Z,26.45
2019-04-21T11:25:00.769Z,26.92
2019-04-21T11:27:28.800Z,27.48
2019-04-21T11:29:55.737Z,27.68
2019-04-21T11:32:23.149Z,27.76
2019-04-21T11:34:49.842Z,27.15
2019-04-21T11:37:18.216Z,25.71
2019-04-21T11:39:53.557Z,25.16
2019-04-21T11:42:19.561Z,24.78
2019-04-21T11:44:49.362Z,24.79
2019-04-21T11:47:18.807Z,25.26
2019-04-21T11:49:45.507Z,25.31
2019-04-21T11:52:13.294Z,26.26
2019-04-21T11:54:41.017Z,26.50
2019-04-21T11:57:14.074Z,26.96
2019-04-21T11:59:37.518Z,27.19
2019-04-21T12:02:05.579Z,27.42
2019-04-21T12:04:33.708Z,27.97
2019-04-21T12:07:01.897Z,28.33
2019-04-21T12:09:29.307Z,28.22
2019-04-21T12:11:57.189Z,27.67
2019-04-21T12:14:25.963Z,27.62
2019-04-21T12:16:55.452Z,27.46
2019-04-21T12:22:08.817Z,26.64
2019-04-21T12:24:33.415Z,26.97
2019-04-21T12:27:02.240Z,27.30
2019-04-21T12:29:30.630Z,27.55
2019-04-21T12:32:03.428Z,27.77
2019-04-21T12:34:30.275Z,27.88
2019-04-21T12:36:57.060Z,27.92
2019-04-21T12:39:25.089Z,28.07
2019-04-21T12:41:51.864Z,28.24
2019-04-21T12:44:20.469Z,28.45
2019-04-21T12:46:47.715Z,28.86
2019-04-21T12:49:15.844Z,28.85
2019-04-21T12:51:44.090Z,28.89
2019-04-21T12:54:11.984Z,28.98
2019-04-21T12:56:38.920Z,29.03
2019-04-21T12:59:05.563Z,28.84
2019-04-21T13:01:32.766Z,28.66
2019-04-21T13:03:59.678Z,28.64
2019-04-21T13:06:27.752Z,28.62
2019-04-21T13:09:01.350Z,28.37
2019-04-21T13:11:23.411Z,28.49
2019-04-21T13:13:50.260Z,28.69
2019-04-21T13:16:19.232Z,28.66
2019-04-21T13:18:47.114Z,28.76
2019-04-21T13:21:14.099Z,28.27
2019-04-21T13:23:41.124Z,28.18
2019-04-21T13:26:08.395Z,28.39
2019-04-21T13:28:37.576Z,28.61
2019-04-21T13:31:04.554Z,28.67
2019-04-21T13:33:31.303Z,28.39
2019-04-21T13:35:59.249Z,27.35
2019-04-21T13:38:34.642Z,26.78
2019-04-21T13:41:27.338Z,27.21
2019-04-21T13:43:41.181Z,27.13
2019-04-21T13:46:08.133Z,27.55
2019-04-21T13:48:34.917Z,27.21
2019-04-21T13:51:01.600Z,26.83
2019-04-21T13:53:28.586Z,26.53
2019-04-21T13:55:56.523Z,26.64
2019-04-21T13:58:24.196Z,26.14
2019-04-21T14:00:52.407Z,26.06
2019-04-21T14:03:21.746Z,26.24
2019-04-21T14:05:48.610Z,26.52
2019-04-21T14:08:15.589Z,26.96
2019-04-21T14:10:43.805Z,27.27
2019-04-21T14:13:12.063Z,27.63
2019-04-21T14:15:42.345Z,27.53
2019-04-21T14:18:10.929Z,27.28
2019-04-21T14:20:37.841Z,26.76
2019-04-21T14:23:15.427Z,27.03
2019-04-21T14:25:32.910Z,26.78
2019-04-21T14:27:59.891Z,26.37
2019-04-21T14:30:28.002Z,26.00
2019-04-21T14:32:56.236Z,26.05
2019-04-21T14:35:23.065Z,25.91
2019-04-21T14:37:52.920Z,25.24
2019-04-21T14:40:23.669Z,25.33
2019-04-21T14:42:49.875Z,25.69
2019-04-21T14:45:30.579Z,25.51
2019-04-21T14:47:59.083Z,25.22
2019-04-21T14:50:40.070Z,25.36
2019-04-21T14:53:09.809Z,25.45
2019-04-21T14:55:39.416Z,25.61
2019-04-21T14:58:07.340Z,25.63
2019-04-21T15:00:46.489Z,25.55
2019-04-21T15:03:16.019Z,25.57
2019-04-21T15:05:43.015Z,25.64
2019-04-21T15:08:11.032Z,25.76
2019-04-21T15:10:38.922Z,25.89
2019-04-21T15:13:05.910Z,26.05
2019-04-21T15:15:32.493Z,25.80
2019-04-21T15:18:00.155Z,25.68
2019-04-21T15:20:26.920Z,25.34
2019-04-21T15:22:54.480Z,25.24
2019-04-21T15:25:21.953Z,25.35
2019-04-21T15:27:48.839Z,25.47
2019-04-21T15:30:16.511Z,25.32
2019-04-21T15:32:44.408Z,25.07
2019-04-21T15:35:11.264Z,24.92
2019-04-21T15:37:37.982Z,24.76
2019-04-21T15:40:14.817Z,24.74
2019-04-21T15:42:34.673Z,24.87
2019-04-21T15:45:02.911Z,24.84
2019-04-21T15:47:31.814Z,24.62
2019-04-21T15:50:03.654Z,24.53
2019-04-21T15:52:28.097Z,24.31
2019-04-21T15:54:56.988Z,23.82
2019-04-21T15:57:29.714Z,23.82
2019-04-21T16:00:02.679Z,23.60
2019-04-21T16:02:44.635Z,23.60
2019-04-21T16:05:12.987Z,23.56
2019-04-21T16:07:40.292Z,23.42
2019-04-21T16:10:10.692Z,23.45
2019-04-21T16:12:37.918Z,23.20
2019-04-21T16:15:08.657Z,23.17
2019-04-21T16:17:35.380Z,23.17
2019-04-21T16:20:03.992Z,23.10
2019-04-21T16:22:30.904Z,22.87
2019-04-21T16:24:59.052Z,22.80
2019-04-21T16:27:25.783Z,22.77
2019-04-21T16:29:52.435Z,22.68
2019-04-21T16:32:21.427Z,22.60
2019-04-21T16:34:55.696Z,22.61
2019-04-21T16:37:17.442Z,22.62
2019-04-21T16:39:45.359Z,22.51
2019-04-21T16:42:14.199Z,22.41
2019-04-21T16:44:41.059Z,22.32
2019-04-21T16:47:07.739Z,22.25
2019-04-21T16:49:35.784Z,22.22
2019-04-21T16:52:07.869Z,22.17
2019-04-21T16:54:35.690Z,22.02
2019-04-21T16:57:04.176Z,21.96
2019-04-21T16:59:32.770Z,21.89
2019-04-21T17:02:00.632Z,21.82
2019-04-21T17:04:28.719Z,21.72
2019-04-21T17:06:55.589Z,21.70
2019-04-21T17:09:22.982Z,21.49
2019-04-21T17:11:57.422Z,21.45
2019-04-21T17:14:37.534Z,21.31
2019-04-21T17:17:15.268Z,21.24
2019-04-21T17:19:25.325Z,21.11
2019-04-21T17:21:47.895Z,20.96
2019-04-21T17:24:14.692Z,20.74
2019-04-21T17:26:44.184Z,20.59
2019-04-21T17:29:10.564Z,20.56
2019-04-21T17:31:37.314Z,20.57
2019-04-21T17:34:11.901Z,20.40
2019-04-21T17:36:33.014Z,20.30
2019-04-21T17:39:00.167Z,20.24
2019-04-21T17:41:36.451Z,20.17
2019-04-21T17:43:58.179Z,20.15
2019-04-21T17:46:36.637Z,20.09
2019-04-21T17:48:54.757Z,19.95
2019-04-21T17:51:27.541Z,19.88
2019-04-21T17:54:00.434Z,19.87
2019-04-21T17:56:55.084Z,19.80
2019-04-21T17:59:16.442Z,19.74
2019-04-21T18:01:45.680Z,19.67
2019-04-21T18:04:15.178Z,19.61
2019-04-21T18:06:54.325Z,19.48
2019-04-21T18:09:34.242Z,19.38
2019-04-21T18:12:01.552Z,19.45
2019-04-21T18:14:07.369Z,19.35
2019-04-21T18:16:39.516Z,19.27
2019-04-21T18:19:02.828Z,19.23
2019-04-21T18:21:50.054Z,19.16
2019-04-21T18:24:17.474Z,19.08
2019-04-21T18:26:47.718Z,18.98
2019-04-21T18:29:09.559Z,18.83
2019-04-21T18:31:42.735Z,18.57
2019-04-21T18:34:17.488Z,18.42
2019-04-21T18:36:49.987Z,18.43
2019-04-21T18:39:33.936Z,18.35
2019-04-21T18:42:06.503Z,18.28
2019-04-21T18:44:46.233Z,18.19
2019-04-21T18:47:16.283Z,18.08
2019-04-21T18:49:26.943Z,17.93
2019-04-21T18:52:03.983Z,17.85
2019-04-21T18:54:44.372Z,17.70
2019-04-21T18:57:10.215Z,17.62
2019-04-21T18:59:34.627Z,17.56
2019-04-21T19:02:01.052Z,17.46
2019-04-21T19:04:29.142Z,17.46
2019-04-21T19:07:06.638Z,17.43
2019-04-21T19:10:07.249Z,17.36
2019-04-21T19:12:16.504Z,17.38
2019-04-21T19:14:52.191Z,17.27
2019-04-21T19:17:38.374Z,17.25
2019-04-21T19:19:44.237Z,17.16
2019-04-21T19:22:21.770Z,17.12
2019-04-21T19:24:33.554Z,17.11
2019-04-21T19:27:08.035Z,17.07
2019-04-21T19:29:58.364Z,17.02
2019-04-21T19:32:04.449Z,16.91
2019-04-21T19:34:19.809Z,16.89
2019-04-21T19:36:48.803Z,16.81
2019-04-21T19:39:16.415Z,16.79
2019-04-21T19:41:55.112Z,16.63
2019-04-21T19:44:26.317Z,16.55
2019-04-21T19:46:55.981Z,16.54
2019-04-21T19:49:27.825Z,16.41
2019-04-21T19:51:43.817Z,16.40
2019-04-21T19:54:14.370Z,16.36
2019-04-21T19:56:31.918Z,16.33
2019-04-21T19:58:59.156Z,16.29
2019-04-21T20:01:25.737Z,16.22
2019-04-21T20:03:56.172Z,16.31
2019-04-21T20:06:34.531Z,16.25
2019-04-21T20:09:12.282Z,16.21
2019-04-21T20:11:34.691Z,16.20
2019-04-21T20:14:35.689Z,16.23
2019-04-21T20:16:37.460Z,16.14
2019-04-21T20:18:54.627Z,16.15
2019-04-21T20:21:16.382Z,16.04
2019-04-21T20:23:44.724Z,15.90
2019-04-21T20:26:13.680Z,15.83
2019-04-21T20:28:49.265Z,15.78
2019-04-21T20:31:24.975Z,15.71
2019-04-21T20:34:00.615Z,15.63
2019-04-21T20:36:29.576Z,15.60
2019-04-21T20:38:47.246Z,15.53
2019-04-21T20:41:22.712Z,15.52
2019-04-21T20:43:51.295Z,15.39
2019-04-21T20:46:23.716Z,15.41
2019-04-21T20:48:48.119Z,15.45
2019-04-21T20:51:20.396Z,15.39
2019-04-21T20:53:41.011Z,15.33
2019-04-21T20:56:08.635Z,15.28
2019-04-21T20:58:46.323Z,15.28
2019-04-21T21:01:26.813Z,15.32
2019-04-21T21:03:40.767Z,15.26
2019-04-21T21:06:08.266Z,15.25
2019-04-21T21:08:40.317Z,15.29
2019-04-21T21:11:03.284Z,15.27
2019-04-21T21:13:36.830Z,15.28
2019-04-21T21:16:21.643Z,15.30
2019-04-21T21:20:59.070Z,15.29
2019-04-21T21:23:33.562Z,15.28
2019-04-21T21:26:04.828Z,15.31
2019-04-21T21:28:24.604Z,15.28
2019-04-21T21:30:52.710Z,15.27
2019-04-21T21:33:22.174Z,15.22
2019-04-21T21:35:46.603Z,15.14
2019-04-21T21:38:28.232Z,15.16
2019-04-21T21:40:45.601Z,15.14
2019-04-21T21:43:08.250Z,15.07
2019-04-21T21:45:37.695Z,15.05
2019-04-21T21:48:20.456Z,14.95
2019-04-21T21:50:42.136Z,14.95
2019-04-21T21:53:03.251Z,14.82
2019-04-21T21:55:25.633Z,14.77
2019-04-21T21:57:58.109Z,14.79
2019-04-21T22:00:24.038Z,14.72
2019-04-21T22:02:55.443Z,14.74
2019-04-21T22:05:24.293Z,14.74
2019-04-21T22:07:49.960Z,14.69
2019-04-21T22:10:17.977Z,14.66
2019-04-21T22:12:53.976Z,14.65
2019-04-21T22:15:18.624Z,14.67
2019-04-21T22:18:03.424Z,14.62
2019-04-21T22:20:33.431Z,14.57
2019-04-21T22:22:49.875Z,14.53
2019-04-21T22:25:14.107Z,14.45
2019-04-21T22:27:39.103Z,14.42
2019-04-21T22:30:14.277Z,14.36
2019-04-21T22:32:50.223Z,14.45
2019-04-21T22:35:11.211Z,14.33
2019-04-21T22:37:48.777Z,14.32
2019-04-21T22:40:17.412Z,14.26
2019-04-21T22:42:45.251Z,14.16
2019-04-21T22:45:07.216Z,14.00
2019-04-21T22:47:37.795Z,13.90
2019-04-21T22:50:08.453Z,13.92
2019-04-21T22:52:35.633Z,13.81
2019-04-21T22:55:11.898Z,13.83
2019-04-21T22:57:41.747Z,13.74
2019-04-21T23:00:10.760Z,13.65
2019-04-21T23:02:39.274Z,13.52
2019-04-21T23:05:09.646Z,13.45
2019-04-21T23:07:41.500Z,13.42
2019-04-21T23:10:05.627Z,13.36
2019-04-21T23:12:36.599Z,13.29
2019-04-21T23:15:07.160Z,13.27
2019-04-21T23:17:50.263Z,13.13
2019-04-21T23:20:19.907Z,13.03
2019-04-21T23:22:58.420Z,12.96
2019-04-21T23:25:18.150Z,12.91
2019-04-21T23:27:46.839Z,12.74
2019-04-21T23:30:20.276Z,12.66
2019-04-21T23:32:36.007Z,12.61
2019-04-21T23:34:54.417Z,12.49
2019-04-21T23:37:24.103Z,12.52
2019-04-21T23:39:54.650Z,12.51
2019-04-21T23:42:23.724Z,12.57
2019-04-21T23:44:52.638Z,12.71
2019-04-21T23:47:29.304Z,12.79
2019-04-21T23:49:53.358Z,12.85
2019-04-21T23:52:15.736Z,12.82
2019-04-21T23:54:41.050Z,12.85
2019-04-21T23:57:12.457Z,12.90
2019-04-21T23:59:41.008Z,12.96
